Time;durP1;ratioP1;P1;durP2;ratioP2;P2;SDS_P1;SDS_P2;PMS_P1;PMS_P2;Temp;Humidity;BMP_temperature;BMP_pressure;BME280_temperature;BME280_humidity;BME280_pressure;Samples;Min_cycle;Max_cycle;Signal;HPM_P1;HPM_P2
2022/11/15 00:02:21;;;;;;;;;;;;;;;;;;6100983;23;7103;-66
2022/11/15 00:04:46;;;;;;;;;;;;;;;;;;6100857;23;8168;-66
2022/11/15 00:07:12;;;;;;;;;;;;;;;;;;6101469;23;7035;-66
2022/11/15 00:09:38;;;;;;;;;;;;;;;;;;6102251;23;6785;-66
2022/11/15 00:12:03;;;;;;;;;;;;;;;;;;6100967;23;7409;-66
2022/11/15 00:17:00;;;;;;;;;;;;;;;;;;6100560;23;8350;-66
2022/11/15 00:19:26;;;;;;;;;;;;;;;;;;6100805;23;6890;-67
2022/11/15 00:21:51;;;;;;;;;;;;;;;;;;6100150;23;7109;-66
2022/11/15 00:24:17;;;;;;;;;;;;;;;;;;6100676;23;7004;-66
2022/11/15 00:26:42;;;;;;;;;;;;;;;;;;6100897;23;6992;-66
2022/11/15 00:29:08;;;;;;;;;;;;;;;;;;6100470;23;7181;-65
2022/11/15 00:31:34;;;;;;;;;;;;;;;;;;6101290;23;7027;-65
2022/11/15 00:33:59;;;;;;;;;;;;;;;;;;6100621;23;7005;-65
2022/11/15 00:36:25;;;;;;;;;;;;;;;;;;6100279;23;7383;-65
2022/11/15 00:38:52;;;;;;;;;;;;;;;;;;6100618;23;7173;-65
2022/11/15 00:41:18;;;;;;;;;;;;;;;;;;6100371;23;7496;-65
2022/11/15 00:43:44;;;;;;;;;;;;;;;;;;6100525;23;7114;-65
2022/11/15 00:46:10;;;;;;;;;;;;;;;;;;6100929;23;7004;-65
2022/11/15 00:48:36;;;;;;;;;;;;;;;;;;6101226;23;7573;-65
2022/11/15 00:51:02;;;;;;;;;;;;;;;;;;6100830;23;7069;-65
2022/11/15 00:53:28;;;;;;;;;;;;;;;;;;6100461;23;7461;-65
2022/11/15 00:55:54;;;;;;;;;;;;;;;;;;6100081;23;7734;-65
2022/11/15 00:58:19;;;;;;;;;;;;;;;;;;6099801;23;7101;-66
2022/11/15 01:00:45;;;;;;;;;;;;;;;;;;6100428;23;7101;-66
2022/11/15 01:03:10;;;;;;;;;;;;;;;;;;6100516;23;7161;-66
2022/11/15 01:05:39;;;;;;;;;;;;;;;;;;6100157;23;8156;-66
2022/11/15 01:08:05;;;;;;;;;;;;;;;;;;6075412;23;8561;-66
2022/11/15 01:10:30;;;;;;;;;;;;;;;;;;6100794;23;7119;-66
2022/11/15 01:12:57;;;;;;;;;;;;;;;;;;6100095;23;7018;-66
2022/11/15 01:15:22;;;;;;;;;;;;;;;;;;6100572;23;7141;-66
2022/11/15 01:17:48;;;;;;;;;;;;;;;;;;6100516;23;6936;-66
2022/11/15 01:20:15;;;;;;;;;;;;;;;;;;6100845;23;6837;-66
2022/11/15 01:22:41;;;;;;;;;;;;;;;;;;6099791;23;6993;-66
2022/11/15 01:25:07;;;;;;;;;;;;;;;;;;6099946;23;6913;-66
2022/11/15 01:27:33;;;;;;;;;;;;;;;;;;6099905;23;7156;-66
2022/11/15 01:29:58;;;;;;;;;;;;;;;;;;6100491;23;6955;-66
2022/11/15 01:32:24;;;;;;;;;;;;;;;;;;6100845;23;7272;-66
2022/11/15 01:34:49;;;;;;;;;;;;;;;;;;6100034;23;6899;-66
2022/11/15 01:37:15;;;;;;;;;;;;;;;;;;6099823;23;6900;-66
2022/11/15 01:39:41;;;;;;;;;;;;;;;;;;6099915;23;7123;-66
2022/11/15 01:42:12;;;;;;;;;;;;;;;;;;6099596;23;7254;-66
2022/11/15 01:44:40;;;;;;;;;;;;;;;;;;6101338;23;7093;-66
2022/11/15 01:47:29;;;;;;;;;;;;;;;;;;6099577;23;7052;-66
2022/11/15 01:50:00;;;;;;;;;;;;;;;;;;6092681;23;7028;-66
2022/11/15 01:52:29;;;;;;;;;;;;;;;;;;6100164;23;7348;-66
2022/11/15 01:55:00;;;;;;;;;;;;;;;;;;6099821;23;7082;-66
2022/11/15 01:57:26;;;;;;;;;;;;;;;;;;6099590;23;7151;-66
2022/11/15 01:59:53;;;;;;;;;;;;;;;;;;6100087;23;6955;-66
2022/11/15 02:02:18;;;;;;;;;;;;;;;;;;6099105;23;7170;-66
2022/11/15 02:04:47;;;;;;;;;;;;;;;;;;6100116;23;7065;-66
2022/11/15 02:07:17;;;;;;;;;;;;;;;;;;6099755;23;7135;-66
2022/11/15 02:09:44;;;;;;;;;;;;;;;;;;6100155;23;7177;-66
2022/11/15 02:12:12;;;;;;;;;;;;;;;;;;6100507;23;6903;-66
2022/11/15 02:14:40;;;;;;;;;;;;;;;;;;6100952;23;6900;-66
2022/11/15 02:17:06;;;;;;;;;;;;;;;;;;6099735;23;7373;-66
2022/11/15 02:19:32;;;;;;;;;;;;;;;;;;6099337;23;7242;-66
2022/11/15 02:22:16;;;;;;;;;;;;;;;;;;6100807;23;7106;-66
2022/11/15 02:25:05;;;;;;;;;;;;;;;;;;6100959;23;8221;-66
2022/11/15 02:27:48;;;;;;;;;;;;;;;;;;6072090;23;7139;-66
2022/11/15 02:30:19;;;;;;;;;;;;;;;;;;6100508;23;7384;-66
2022/11/15 02:32:50;;;;;;;;;;;;;;;;;;6099771;23;7142;-65
2022/11/15 02:35:34;;;;;;;;;;;;;;;;;;6099171;23;7123;-65
2022/11/15 02:38:06;;;;;;;;;;;;;;;;;;6098639;23;8175;-65
2022/11/15 02:40:34;;;;;;;;;;;;;;;;;;6099837;23;7084;-65
2022/11/15 02:46:00;;;;;;;;;;;;;;;;;;6099133;23;6902;-65
2022/11/15 02:48:26;;;;;;;;;;;;;;;;;;6099799;23;7167;-65
2022/11/15 02:50:52;;;;;;;;;;;;;;;;;;6099764;23;7241;-65
2022/11/15 02:53:18;;;;;;;;;;;;;;;;;;6099677;23;7150;-65
2022/11/15 02:55:47;;;;;;;;;;;;;;;;;;6099532;23;6929;-65
2022/11/15 02:58:24;;;;;;;;;;;;;;;;;;6099299;23;7009;-65
2022/11/15 03:00:49;;;;;;;;;;;;;;;;;;6099466;23;7148;-65
2022/11/15 03:03:29;;;;;;;;;;;;;;;;;;6099632;23;7419;-65
2022/11/15 03:06:01;;;;;;;;;;;;;;;;;;6099730;23;6822;-65
2022/11/15 03:08:39;;;;;;;;;;;;;;;;;;6099532;23;7137;-65
2022/11/15 03:11:16;;;;;;;;;;;;;;;;;;6098833;23;7772;-65
2022/11/15 03:13:44;;;;;;;;;;;;;;;;;;6100176;23;7027;-65
2022/11/15 03:16:16;;;;;;;;;;;;;;;;;;6102398;23;7121;-65
2022/11/15 03:18:46;;;;;;;;;;;;;;;;;;6101536;23;6820;-65
2022/11/15 03:21:14;;;;;;;;;;;;;;;;;;6102162;23;7430;-65
2022/11/15 03:23:41;;;;;;;;;;;;;;;;;;6101427;23;7089;-65
2022/11/15 03:26:10;;;;;;;;;;;;;;;;;;6100980;23;6958;-65
2022/11/15 03:28:42;;;;;;;;;;;;;;;;;;6100974;23;7361;-65
2022/11/15 03:33:58;;;;;;;;;;;;;;;;;;6101176;23;6940;-65
2022/11/15 03:36:25;;;;;;;;;;;;;;;;;;6101040;23;7156;-65
2022/11/15 03:38:56;;;;;;;;;;;;;;;;;;6101260;23;7115;-65
2022/11/15 03:41:28;;;;;;;;;;;;;;;;;;6101513;23;7102;-65
2022/11/15 03:44:06;;;;;;;;;;;;;;;;;;6100592;23;7194;-65
2022/11/15 03:46:48;;;;;;;;;;;;;;;;;;6100933;23;7028;-65
2022/11/15 03:49:22;;;;;;;;;;;;;;;;;;6075903;23;7918;-65
2022/11/15 03:51:48;;;;;;;;;;;;;;;;;;6100937;23;6952;-65
2022/11/15 03:54:13;;;;;;;;;;;;;;;;;;6101434;23;6980;-66
2022/11/15 03:56:39;;;;;;;;;;;;;;;;;;6101626;23;6801;-66
2022/11/15 03:59:05;;;;;;;;;;;;;;;;;;6101748;23;6823;-66
2022/11/15 04:01:30;;;;;;;;;;;;;;;;;;6101641;23;7088;-66
2022/11/15 04:03:56;;;;;;;;;;;;;;;;;;6100818;23;7055;-66
2022/11/15 04:06:22;;;;;;;;;;;;;;;;;;6100909;23;7055;-66
2022/11/15 04:08:47;;;;;;;;;;;;;;;;;;6100958;23;7103;-66
2022/11/15 04:11:13;;;;;;;;;;;;;;;;;;6100944;23;7042;-66
2022/11/15 04:13:38;;;;;;;;;;;;;;;;;;6101256;23;7223;-66
2022/11/15 04:16:04;;;;;;;;;;;;;;;;;;6101443;23;7149;-66
2022/11/15 04:18:30;;;;;;;;;;;;;;;;;;6100964;23;7179;-66
2022/11/15 04:26:22;;;;;;;;;;;;;;;;;;6111172;23;6867;-66
2022/11/15 04:31:32;;;;;;;;;;;;;;;;;;6100231;23;6866;-65
2022/11/15 04:33:59;;;;;;;;;;;;;;;;;;6100844;23;6802;-65
2022/11/15 04:39:09;;;;;;;;;;;;;;;;;;6100348;23;6799;-65
2022/11/15 04:41:35;;;;;;;;;;;;;;;;;;6100753;23;6917;-65
2022/11/15 04:44:01;;;;;;;;;;;;;;;;;;6100867;23;6947;-65
2022/11/15 04:46:26;;;;;;;;;;;;;;;;;;6100685;23;7086;-65
2022/11/15 04:48:55;;;;;;;;;;;;;;;;;;6100761;23;7237;-65
2022/11/15 04:51:21;;;;;;;;;;;;;;;;;;6101500;23;6898;-65
2022/11/15 04:53:46;;;;;;;;;;;;;;;;;;6100951;23;7325;-65
2022/11/15 04:56:12;;;;;;;;;;;;;;;;;;6100704;23;6927;-65
2022/11/15 04:58:38;;;;;;;;;;;;;;;;;;6099727;23;7340;-65
2022/11/15 05:01:10;;;;;;;;;;;;;;;;;;6099592;23;7438;-65
2022/11/15 05:06:20;;;;;;;;;;;;;;;;;;6099778;23;6787;-65
2022/11/15 05:08:46;;;;;;;;;;;;;;;;;;6100688;23;6996;-65
2022/11/15 05:11:11;;;;;;;;;;;;;;;;;;6101159;23;7089;-65
2022/11/15 05:13:37;;;;;;;;;;;;;;;;;;6099747;23;7110;-65
2022/11/15 05:16:03;;;;;;;;;;;;;;;;;;6100232;23;7181;-65
2022/11/15 05:18:28;;;;;;;;;;;;;;;;;;6100604;23;7368;-65
2022/11/15 05:20:55;;;;;;;;;;;;;;;;;;6101641;23;7173;-65
2022/11/15 05:23:21;;;;;;;;;;;;;;;;;;6100477;23;7090;-65
2022/11/15 05:25:47;;;;;;;;;;;;;;;;;;6099213;23;7051;-65
2022/11/15 05:28:13;;;;;;;;;;;;;;;;;;6099809;23;7055;-65
2022/11/15 05:30:39;;;;;;;;;;;;;;;;;;6074815;23;7212;-65
2022/11/15 05:33:05;;;;;;;;;;;;;;;;;;6100332;23;6940;-65
2022/11/15 05:35:36;;;;;;;;;;;;;;;;;;6100282;23;7070;-65
2022/11/15 05:38:01;;;;;;;;;;;;;;;;;;6099162;23;7138;-65
2022/11/15 05:40:29;;;;;;;;;;;;;;;;;;6101191;23;6897;-65
2022/11/15 05:42:56;;;;;;;;;;;;;;;;;;6100806;23;6933;-65
2022/11/15 05:45:21;;;;;;;;;;;;;;;;;;6100019;23;6916;-65
2022/11/15 05:47:49;;;;;;;;;;;;;;;;;;6100259;23;7520;-66
2022/11/15 05:50:17;;;;;;;;;;;;;;;;;;6100983;23;7020;-66
2022/11/15 05:52:44;;;;;;;;;;;;;;;;;;6099525;23;6966;-65
2022/11/15 05:55:10;;;;;;;;;;;;;;;;;;6099558;23;7397;-66
2022/11/15 05:57:36;;;;;;;;;;;;;;;;;;6099758;23;7241;-66
2022/11/15 06:00:03;;;;;;;;;;;;;;;;;;6099283;23;6870;-65
2022/11/15 06:02:29;;;;;;;;;;;;;;;;;;6099750;23;7094;-65
2022/11/15 06:04:54;;;;;;;;;;;;;;;;;;6099572;23;6856;-65
2022/11/15 06:07:20;;;;;;;;;;;;;;;;;;6099159;23;6886;-65
2022/11/15 06:09:46;;;;;;;;;;;;;;;;;;6099668;23;7497;-65
2022/11/15 06:12:11;;;;;;;;;;;;;;;;;;6100030;23;7009;-65
2022/11/15 06:14:37;;;;;;;;;;;;;;;;;;6099577;23;7073;-65
2022/11/15 06:17:03;;;;;;;;;;;;;;;;;;6099227;23;6983;-65
2022/11/15 06:19:32;;;;;;;;;;;;;;;;;;6099199;23;7079;-65
2022/11/15 06:21:59;;;;;;;;;;;;;;;;;;6099688;23;7304;-65
2022/11/15 06:24:24;;;;;;;;;;;;;;;;;;6100704;23;7203;-65
2022/11/15 06:26:51;;;;;;;;;;;;;;;;;;6099416;23;7110;-65
2022/11/15 06:29:16;;;;;;;;;;;;;;;;;;6099593;23;6895;-65
2022/11/15 06:31:42;;;;;;;;;;;;;;;;;;6099492;23;6898;-65
2022/11/15 06:34:08;;;;;;;;;;;;;;;;;;6100542;23;7279;-65
2022/11/15 06:36:35;;;;;;;;;;;;;;;;;;6099839;23;7181;-66
2022/11/15 06:39:03;;;;;;;;;;;;;;;;;;6099283;23;7182;-66
2022/11/15 06:41:28;;;;;;;;;;;;;;;;;;6100455;23;6931;-66
2022/11/15 06:43:54;;;;;;;;;;;;;;;;;;6099577;23;7095;-66
2022/11/15 06:46:19;;;;;;;;;;;;;;;;;;6073574;23;7129;-66
2022/11/15 06:48:45;;;;;;;;;;;;;;;;;;6100296;23;7140;-66
2022/11/15 06:51:11;;;;;;;;;;;;;;;;;;6101328;23;7874;-66
2022/11/15 06:53:36;;;;;;;;;;;;;;;;;;6102320;23;7104;-66
2022/11/15 06:56:04;;;;;;;;;;;;;;;;;;6101394;23;7207;-66
2022/11/15 06:58:30;;;;;;;;;;;;;;;;;;6099155;23;7422;-66
2022/11/15 07:01:07;;;;;;;;;;;;;;;;;;6100740;23;7119;-66
2022/11/15 07:03:41;;;;;;;;;;;;;;;;;;6100889;23;7382;-65
2022/11/15 07:06:08;;;;;;;;;;;;;;;;;;6075033;23;8984;-66
2022/11/15 07:08:34;;;;;;;;;;;;;;;;;;6100362;23;6797;-66
2022/11/15 07:11:02;;;;;;;;;;;;;;;;;;6074808;23;7032;-66
2022/11/15 07:13:29;;;;;;;;;;;;;;;;;;6075406;23;7052;-66
2022/11/15 07:15:55;;;;;;;;;;;;;;;;;;6100652;23;6949;-66
2022/11/15 07:18:21;;;;;;;;;;;;;;;;;;6075102;23;8576;-66
2022/11/15 07:20:47;;;;;;;;;;;;;;;;;;6074962;23;8391;-66
2022/11/15 07:23:13;;;;;;;;;;;;;;;;;;6100182;23;7749;-65
2022/11/15 07:25:39;;;;;;;;;;;;;;;;;;6101052;23;7090;-66
2022/11/15 07:28:05;;;;;;;;;;;;;;;;;;6074793;23;7141;-66
2022/11/15 07:30:31;;;;;;;;;;;;;;;;;;6100511;23;7078;-65
2022/11/15 07:32:58;;;;;;;;;;;;;;;;;;6100330;23;6995;-66
2022/11/15 07:35:24;;;;;;;;;;;;;;;;;;6100210;23;6850;-65
2022/11/15 07:37:57;;;;;;;;;;;;;;;;;;6100343;23;7150;-65
2022/11/15 07:40:23;;;;;;;;;;;;;;;;;;6100158;23;7032;-65
2022/11/15 07:42:56;;;;;;;;;;;;;;;;;;6074589;23;7156;-66
2022/11/15 07:45:23;;;;;;;;;;;;;;;;;;6100300;23;7276;-66
2022/11/15 07:47:49;;;;;;;;;;;;;;;;;;6100384;23;7175;-66
2022/11/15 07:50:15;;;;;;;;;;;;;;;;;;6100125;23;7178;-66
2022/11/15 07:52:41;;;;;;;;;;;;;;;;;;6100087;23;7182;-66
2022/11/15 07:55:07;;;;;;;;;;;;;;;;;;6099897;23;6972;-66
2022/11/15 07:57:32;;;;;;;;;;;;;;;;;;6099763;23;7142;-66
2022/11/15 07:59:58;;;;;;;;;;;;;;;;;;6074921;23;7034;-66
2022/11/15 08:02:23;;;;;;;;;;;;;;;;;;6074592;23;7004;-66
2022/11/15 08:04:49;;;;;;;;;;;;;;;;;;6099882;23;7390;-66
2022/11/15 08:07:14;;;;;;;;;;;;;;;;;;6100194;23;7024;-66
2022/11/15 08:09:40;;;;;;;;;;;;;;;;;;6099710;23;7177;-66
2022/11/15 08:12:05;;;;;;;;;;;;;;;;;;6100165;23;7190;-66
2022/11/15 08:14:31;;;;;;;;;;;;;;;;;;6100039;23;7076;-66
2022/11/15 08:16:57;;;;;;;;;;;;;;;;;;6074583;23;7392;-66
2022/11/15 08:19:22;;;;;;;;;;;;;;;;;;6100228;23;7120;-66
2022/11/15 08:21:48;;;;;;;;;;;;;;;;;;6100109;23;7390;-66
2022/11/15 08:24:13;;;;;;;;;;;;;;;;;;6100025;23;7035;-65
2022/11/15 08:26:39;;;;;;;;;;;;;;;;;;6099987;23;7213;-65
2022/11/15 08:29:08;;;;;;;;;;;;;;;;;;6101935;23;7001;-66
2022/11/15 08:31:36;;;;;;;;;;;;;;;;;;6074704;23;7158;-65
2022/11/15 08:34:02;;;;;;;;;;;;;;;;;;6100313;23;6967;-65
2022/11/15 08:36:28;;;;;;;;;;;;;;;;;;6100942;23;7184;-65
2022/11/15 08:38:55;;;;;;;;;;;;;;;;;;6100411;23;7182;-65
2022/11/15 08:41:30;;;;;;;;;;;;;;;;;;6100622;23;6957;-65
2022/11/15 08:43:56;;;;;;;;;;;;;;;;;;6101145;23;6930;-65
2022/11/15 08:46:22;;;;;;;;;;;;;;;;;;6100123;23;6990;-65
2022/11/15 08:48:47;;;;;;;;;;;;;;;;;;6100104;23;7455;-65
2022/11/15 08:51:13;;;;;;;;;;;;;;;;;;6100503;23;7264;-65
2022/11/15 08:53:39;;;;;;;;;;;;;;;;;;6100838;23;6933;-65
2022/11/15 08:56:09;;;;;;;;;;;;;;;;;;6100513;23;6995;-65
2022/11/15 08:58:35;;;;;;;;;;;;;;;;;;6100062;23;6965;-65
2022/11/15 09:01:01;;;;;;;;;;;;;;;;;;6100204;23;7315;-65
2022/11/15 09:03:26;;;;;;;;;;;;;;;;;;6100201;23;6971;-65
2022/11/15 09:05:56;;;;;;;;;;;;;;;;;;6099957;23;6974;-65
2022/11/15 09:08:22;;;;;;;;;;;;;;;;;;6101450;23;7221;-65
2022/11/15 09:10:48;;;;;;;;;;;;;;;;;;6100387;23;7846;-65
2022/11/15 09:13:13;;;;;;;;;;;;;;;;;;6101456;23;6913;-66
2022/11/15 09:15:39;;;;;;;;;;;;;;;;;;6100976;23;6984;-66
2022/11/15 09:18:05;;;;;;;;;;;;;;;;;;6099504;23;6882;-66
2022/11/15 09:20:31;;;;;;;;;;;;;;;;;;6100545;23;6912;-65
2022/11/15 09:23:03;;;;;;;;;;;;;;;;;;6091440;23;7368;-65
2022/11/15 09:25:29;;;;;;;;;;;;;;;;;;6097978;23;7152;-65
2022/11/15 09:27:55;;;;;;;;;;;;;;;;;;6098481;23;7038;-65
2022/11/15 09:30:22;;;;;;;;;;;;;;;;;;6072054;23;7140;-65
2022/11/15 09:32:47;;;;;;;;;;;;;;;;;;6072934;23;8436;-65
2022/11/15 09:35:12;;;;;;;;;;;;;;;;;;6093128;23;7215;-65
2022/11/15 09:37:38;;;;;;;;;;;;;;;;;;6090945;23;7155;-65
2022/11/15 09:40:04;;;;;;;;;;;;;;;;;;6088878;23;6801;-66
2022/11/15 09:42:46;;;;;;;;;;;;;;;;;;6088744;23;7234;-65
2022/11/15 09:45:39;;;;;;;;;;;;;;;;;;6095548;23;6824;-65
2022/11/15 09:48:04;;;;;;;;;;;;;;;;;;6095776;23;7950;-66
2022/11/15 09:50:46;;;;;;;;;;;;;;;;;;6092583;23;7126;-66
2022/11/15 09:53:17;;;;;;;;;;;;;;;;;;6058819;23;7183;-66
2022/11/15 09:55:59;;;;;;;;;;;;;;;;;;6095553;23;7403;-66
2022/11/15 09:58:34;;;;;;;;;;;;;;;;;;6098433;23;7265;-66
2022/11/15 10:01:09;;;;;;;;;;;;;;;;;;6099369;23;6958;-66
2022/11/15 10:03:39;;;;;;;;;;;;;;;;;;6099299;23;7164;-66
2022/11/15 10:06:06;;;;;;;;;;;;;;;;;;6088777;23;6939;-66
2022/11/15 10:08:47;;;;;;;;;;;;;;;;;;6098305;23;7418;-66
2022/11/15 10:11:34;;;;;;;;;;;;;;;;;;6074240;23;7013;-66
2022/11/15 10:14:02;;;;;;;;;;;;;;;;;;6099234;23;6936;-66
2022/11/15 10:16:27;;;;;;;;;;;;;;;;;;6099183;23;6934;-66
2022/11/15 10:19:11;;;;;;;;;;;;;;;;;;6099251;23;7099;-66
2022/11/15 10:21:46;;;;;;;;;;;;;;;;;;6099021;23;7133;-66
2022/11/15 10:24:13;;;;;;;;;;;;;;;;;;6098833;23;7047;-66
2022/11/15 10:26:39;;;;;;;;;;;;;;;;;;6098620;23;6981;-66
2022/11/15 10:29:05;;;;;;;;;;;;;;;;;;6098836;23;7022;-66
2022/11/15 10:31:30;;;;;;;;;;;;;;;;;;6098948;23;7128;-66
2022/11/15 10:34:16;;;;;;;;;;;;;;;;;;6099034;23;6916;-66
2022/11/15 10:36:54;;;;;;;;;;;;;;;;;;6098853;23;7067;-66
2022/11/15 10:39:20;;;;;;;;;;;;;;;;;;6097587;23;7122;-66
2022/11/15 10:41:46;;;;;;;;;;;;;;;;;;6096329;23;7416;-66
2022/11/15 10:44:14;;;;;;;;;;;;;;;;;;6099314;23;7116;-65
2022/11/15 10:46:41;;;;;;;;;;;;;;;;;;6098996;23;7055;-64
2022/11/15 10:49:12;;;;;;;;;;;;;;;;;;6099117;23;7043;-65
2022/11/15 10:51:42;;;;;;;;;;;;;;;;;;6096756;23;6958;-64
2022/11/15 10:54:11;;;;;;;;;;;;;;;;;;6098819;23;7048;-64
2022/11/15 10:56:37;;;;;;;;;;;;;;;;;;6098516;23;7218;-65
2022/11/15 10:59:02;;;;;;;;;;;;;;;;;;6097026;23;7032;-65
2022/11/15 11:01:29;;;;;;;;;;;;;;;;;;6097800;23;7135;-65
2022/11/15 11:04:00;;;;;;;;;;;;;;;;;;6098552;23;7126;-65
2022/11/15 11:06:25;;;;;;;;;;;;;;;;;;6098553;23;6985;-65
2022/11/15 11:08:56;;;;;;;;;;;;;;;;;;6096480;23;6937;-65
2022/11/15 11:11:22;;;;;;;;;;;;;;;;;;6095813;23;7167;-65
2022/11/15 11:13:48;;;;;;;;;;;;;;;;;;6098388;23;7126;-65
2022/11/15 11:16:13;;;;;;;;;;;;;;;;;;6098232;23;7005;-65
2022/11/15 11:18:39;;;;;;;;;;;;;;;;;;6098033;23;7089;-65
2022/11/15 11:21:11;;;;;;;;;;;;;;;;;;6096007;23;7095;-65
2022/11/15 11:23:40;;;;;;;;;;;;;;;;;;6097088;23;7048;-65
2022/11/15 11:26:08;;;;;;;;;;;;;;;;;;6095953;23;7158;-65
2022/11/15 11:28:52;;;;;;;;;;;;;;;;;;6096396;23;7443;-64
2022/11/15 11:31:18;;;;;;;;;;;;;;;;;;6098168;23;7231;-65
2022/11/15 11:33:49;;;;;;;;;;;;;;;;;;6097949;23;7137;-65
2022/11/15 11:36:20;;;;;;;;;;;;;;;;;;6051347;23;8926;-65
2022/11/15 11:39:05;;;;;;;;;;;;;;;;;;6069957;23;7229;-65
2022/11/15 11:44:45;;;;;;;;;;;;;;;;;;5071009;28;6626;-65
2022/11/15 11:47:12;;;;;;;;;;;;;;;;;;5051561;28;7624;-71
2022/11/15 11:49:44;;;;;;;;;;;;;;;;;;5051573;28;7420;-70
2022/11/15 11:52:15;;;;;;;;;;;;;;;;;;5051289;28;7011;-70
2022/11/15 11:54:56;;;;;;;;;;;;;;;;;;5051631;28;7078;-70
2022/11/15 11:57:38;;;;;;;;;;;;;;;;;;5051277;28;7094;-70
2022/11/15 12:00:22;;;;;;;;;;;;;;;;;;5051176;28;7139;-70
2022/11/15 12:02:57;;;;;;;;;;;;;;;;;;5051376;28;7084;-70
2022/11/15 12:05:29;;;;;;;;;;;;;;;;;;5051296;28;7077;-70
2022/11/15 12:07:59;;;;;;;;;;;;;;;;;;5051148;28;7179;-70
2022/11/15 12:10:35;;;;;;;;;;;;;;;;;;5051462;28;7315;-70
2022/11/15 12:13:08;;;;;;;;;;;;;;;;;;5051042;28;7160;-70
2022/11/15 12:15:43;;;;;;;;;;;;;;;;;;5051251;28;7411;-70
2022/11/15 12:18:13;;;;;;;;;;;;;;;;;;5051016;28;7171;-70
2022/11/15 12:20:43;;;;;;;;;;;;;;;;;;5050860;28;6947;-70
2022/11/15 12:23:16;;;;;;;;;;;;;;;;;;5050695;28;6969;-70
2022/11/15 12:25:52;;;;;;;;;;;;;;;;;;5051115;28;7149;-70
2022/11/15 12:28:28;;;;;;;;;;;;;;;;;;5051052;28;7264;-70
2022/11/15 12:30:57;;;;;;;;;;;;;;;;;;5050921;28;7163;-70
2022/11/15 12:33:35;;;;;;;;;;;;;;;;;;5050899;28;7458;-70
2022/11/15 12:36:12;;;;;;;;;;;;;;;;;;5050746;28;7268;-70
2022/11/15 12:38:49;;;;;;;;;;;;;;;;;;5050797;28;7193;-70
2022/11/15 12:41:17;;;;;;;;;;;;;;;;;;5050777;28;7192;-70
2022/11/15 12:43:45;;;;;;;;;;;;;;;;;;5060835;28;7247;-70
2022/11/15 12:46:13;;;;;;;;;;;;;;;;;;5070049;28;7440;-70
2022/11/15 12:48:39;;;;;;;;;;;;;;;;;;5070238;28;7212;-70
2022/11/15 12:51:04;;;;;;;;;;;;;;;;;;5069870;28;7115;-70
2022/11/15 12:53:32;;;;;;;;;;;;;;;;;;5069743;28;6998;-70
2022/11/15 12:56:20;;;;;;;;;;;;;;;;;;5056748;28;7148;-69
2022/11/15 12:58:49;;;;;;;;;;;;;;;;;;5053722;28;7092;-70
2022/11/15 13:01:35;;;;;;;;;;;;;;;;;;5056786;28;7108;-70
2022/11/15 13:04:07;;;;;;;;;;;;;;;;;;5038522;28;8502;-71
2022/11/15 13:06:34;;;;;;;;;;;;;;;;;;5056869;28;7055;-70
2022/11/15 13:09:00;;;;;;;;;;;;;;;;;;5056456;28;6854;-70
2022/11/15 13:11:46;;;;;;;;;;;;;;;;;;5056438;28;7058;-71
2022/11/15 13:14:41;;;;;;;;;;;;;;;;;;5055653;28;7156;-71
2022/11/15 13:17:22;;;;;;;;;;;;;;;;;;5053757;28;7390;-71
2022/11/15 13:19:55;;;;;;;;;;;;;;;;;;5050821;28;7020;-69
2022/11/15 13:25:30;;;;;;;;;;;;;;;;;;5036102;28;6987;-70
2022/11/15 13:28:00;;;;;;;;;;;;;;;;;;5036078;28;7313;-70
2022/11/15 13:30:30;;;;;;;;;;;;;;;;;;5017848;28;9475;-70
2022/11/15 13:33:01;;;;;;;;;;;;;;;;;;5036124;28;6863;-70
2022/11/15 13:35:29;;;;;;;;;;;;;;;;;;5041667;28;7119;-70
2022/11/15 13:37:57;;;;;;;;;;;;;;;;;;5055633;28;6989;-70
2022/11/15 13:40:27;;;;;;;;;;;;;;;;;;5055381;28;7952;-70
2022/11/15 13:42:57;;;;;;;;;;;;;;;;;;5034342;28;8327;-70
2022/11/15 13:45:24;;;;;;;;;;;;;;;;;;5035796;28;7109;-70
2022/11/15 13:47:57;;;;;;;;;;;;;;;;;;5034757;28;7460;-70
2022/11/15 13:50:31;;;;;;;;;;;;;;;;;;5034329;28;8433;-70
2022/11/15 13:52:59;;;;;;;;;;;;;;;;;;5034348;28;8848;-70
2022/11/15 13:55:26;;;;;;;;;;;;;;;;;;5035950;28;7150;-70
2022/11/15 13:57:55;;;;;;;;;;;;;;;;;;5035370;28;7140;-70
2022/11/15 14:00:39;;;;;;;;;;;;;;;;;;5022991;28;7130;-70
2022/11/15 14:03:25;;;;;;;;;;;;;;;;;;5015722;28;7216;-70
2022/11/15 14:06:12;;;;;;;;;;;;;;;;;;5014592;28;6874;-70
2022/11/15 14:08:43;;;;;;;;;;;;;;;;;;5015166;28;7163;-70
2022/11/15 14:11:15;;;;;;;;;;;;;;;;;;5016411;28;7084;-70
2022/11/15 14:13:42;;;;;;;;;;;;;;;;;;5035425;28;7157;-70
2022/11/15 14:16:32;;;;;;;;;;;;;;;;;;5035327;28;7030;-70
2022/11/15 14:19:01;;;;;;;;;;;;;;;;;;5035104;28;7160;-70
2022/11/15 14:21:28;;;;;;;;;;;;;;;;;;5035029;28;7426;-70
2022/11/15 14:24:14;;;;;;;;;;;;;;;;;;5034824;28;7204;-71
2022/11/15 14:26:39;;;;;;;;;;;;;;;;;;5033724;28;7007;-71
2022/11/15 14:29:23;;;;;;;;;;;;;;;;;;5034920;28;6877;-71
2022/11/15 14:31:48;;;;;;;;;;;;;;;;;;5035325;28;7106;-71
2022/11/15 14:34:14;;;;;;;;;;;;;;;;;;5034846;28;7403;-70
2022/11/15 14:36:39;;;;;;;;;;;;;;;;;;5034726;28;7163;-71
2022/11/15 14:39:05;;;;;;;;;;;;;;;;;;5034740;28;7948;-70
2022/11/15 14:41:37;;;;;;;;;;;;;;;;;;5035066;28;7386;-71
2022/11/15 14:44:03;;;;;;;;;;;;;;;;;;5050131;28;7079;-69
2022/11/15 14:46:29;;;;;;;;;;;;;;;;;;5054701;28;7148;-69
2022/11/15 14:48:55;;;;;;;;;;;;;;;;;;5053997;28;7267;-68
2022/11/15 14:51:20;;;;;;;;;;;;;;;;;;5055141;28;7171;-70
2022/11/15 14:53:47;;;;;;;;;;;;;;;;;;5054315;28;7319;-70
2022/11/15 14:56:13;;;;;;;;;;;;;;;;;;5054787;28;7101;-71
2022/11/15 14:58:39;;;;;;;;;;;;;;;;;;5054301;28;6887;-71
2022/11/15 15:01:13;;;;;;;;;;;;;;;;;;5053701;28;7112;-71
2022/11/15 15:03:38;;;;;;;;;;;;;;;;;;5054330;28;6840;-71
2022/11/15 15:06:04;;;;;;;;;;;;;;;;;;5054472;28;7069;-71
2022/11/15 15:08:30;;;;;;;;;;;;;;;;;;5054314;28;7342;-71
2022/11/15 15:10:55;;;;;;;;;;;;;;;;;;5054319;28;7130;-71
2022/11/15 15:13:23;;;;;;;;;;;;;;;;;;5053938;28;7416;-71
2022/11/15 15:15:50;;;;;;;;;;;;;;;;;;5054187;28;7212;-71
2022/11/15 15:18:15;;;;;;;;;;;;;;;;;;5053606;28;7059;-71
2022/11/15 15:20:43;;;;;;;;;;;;;;;;;;5053689;28;7909;-71
2022/11/15 15:23:19;;;;;;;;;;;;;;;;;;5046559;28;7077;-71
2022/11/15 15:25:45;;;;;;;;;;;;;;;;;;5053797;28;6840;-71
2022/11/15 15:28:12;;;;;;;;;;;;;;;;;;5054033;28;7504;-71
2022/11/15 15:30:37;;;;;;;;;;;;;;;;;;5054158;28;7267;-71
2022/11/15 15:33:04;;;;;;;;;;;;;;;;;;5053883;28;7077;-74
2022/11/15 15:35:32;;;;;;;;;;;;;;;;;;5053783;28;7039;-71
2022/11/15 15:37:58;;;;;;;;;;;;;;;;;;5051061;28;7083;-71
2022/11/15 15:40:25;;;;;;;;;;;;;;;;;;5053915;28;7142;-71
2022/11/15 15:42:51;;;;;;;;;;;;;;;;;;5053901;28;7318;-71
2022/11/15 15:45:17;;;;;;;;;;;;;;;;;;5053941;28;7058;-71
2022/11/15 15:47:44;;;;;;;;;;;;;;;;;;5053694;28;7173;-71
2022/11/15 15:50:27;;;;;;;;;;;;;;;;;;5053905;28;7374;-71
2022/11/15 15:52:54;;;;;;;;;;;;;;;;;;5053743;28;7271;-71
2022/11/15 15:55:20;;;;;;;;;;;;;;;;;;5047343;28;7035;-71
2022/11/15 15:57:46;;;;;;;;;;;;;;;;;;5053706;28;7266;-71
2022/11/15 16:00:13;;;;;;;;;;;;;;;;;;5035097;28;7228;-72
2022/11/15 16:02:39;;;;;;;;;;;;;;;;;;5032854;28;8505;-73
2022/11/15 16:05:05;;;;;;;;;;;;;;;;;;5033695;28;7130;-73
2022/11/15 16:07:30;;;;;;;;;;;;;;;;;;5045197;28;7288;-73
2022/11/15 16:10:02;;;;;;;;;;;;;;;;;;5053205;28;7069;-73
2022/11/15 16:12:33;;;;;;;;;;;;;;;;;;5052620;28;7203;-72
2022/11/15 16:14:59;;;;;;;;;;;;;;;;;;5035883;28;8489;-72
2022/11/15 16:17:26;;;;;;;;;;;;;;;;;;5053457;28;7167;-73
2022/11/15 16:19:52;;;;;;;;;;;;;;;;;;5053375;28;7119;-73
2022/11/15 16:22:26;;;;;;;;;;;;;;;;;;5053777;28;7057;-65
2022/11/15 16:25:10;;;;;;;;;;;;;;;;;;5052734;28;7210;-65
2022/11/15 16:27:46;;;;;;;;;;;;;;;;;;5053193;28;7597;-66
2022/11/15 16:30:53;;;;;;;;;;;;;;;;;;;;;
2022/11/15 16:33:57;;;;;;;;;;;;;;;;;;5036596;28;7369;-66
2022/11/15 16:36:45;;;;;;;;;;;;;;;;;;5021636;28;6981;-65
2022/11/15 16:39:18;;;;;;;;;;;;;;;;;;5038884;28;8487;-66
2022/11/15 16:42:12;;;;;;;;;;;;;;;;;;5056500;28;7006;-65
2022/11/15 16:44:44;;;;;;;;;;;;;;;;;;5051575;28;7095;-66
2022/11/15 16:47:30;;;;;;;;;;;;;;;;;;5056561;28;7069;-65
2022/11/15 16:50:05;;;;;;;;;;;;;;;;;;5038834;28;7312;-64
2022/11/15 16:52:37;;;;;;;;;;;;;;;;;;5056120;28;7175;-66
2022/11/15 16:55:05;;;;;;;;;;;;;;;;;;5056861;28;7108;-66
2022/11/15 16:57:30;;;;;;;;;;;;;;;;;;5056311;28;6871;-66
2022/11/15 16:59:56;;;;;;;;;;;;;;;;;;5056621;28;7125;-66
2022/11/15 17:02:21;;;;;;;;;;;;;;;;;;5056162;28;7202;-66
2022/11/15 17:04:47;;;;;;;;;;;;;;;;;;5056740;28;7153;-66
2022/11/15 17:07:12;;;;;;;;;;;;;;;;;;5038695;28;7218;-66
2022/11/15 17:09:38;;;;;;;;;;;;;;;;;;5056403;28;7004;-66
2022/11/15 17:12:05;;;;;;;;;;;;;;;;;;5056149;28;7263;-66
2022/11/15 17:14:30;;;;;;;;;;;;;;;;;;5056335;28;7061;-66
2022/11/15 17:16:56;;;;;;;;;;;;;;;;;;5056313;28;7211;-66
2022/11/15 17:19:21;;;;;;;;;;;;;;;;;;5055925;28;8328;-66
2022/11/15 17:21:50;;;;;;;;;;;;;;;;;;5055577;28;7083;-66
2022/11/15 17:24:16;;;;;;;;;;;;;;;;;;5056333;28;7150;-66
2022/11/15 17:26:42;;;;;;;;;;;;;;;;;;5055886;28;7199;-66
2022/11/15 17:29:08;;;;;;;;;;;;;;;;;;5055982;28;7261;-66
2022/11/15 17:31:34;;;;;;;;;;;;;;;;;;5055803;28;7000;-66
2022/11/15 17:34:01;;;;;;;;;;;;;;;;;;5056163;28;7201;-66
2022/11/15 17:36:27;;;;;;;;;;;;;;;;;;5056186;28;7136;-66
2022/11/15 17:38:53;;;;;;;;;;;;;;;;;;5055619;28;7164;-66
2022/11/15 17:41:20;;;;;;;;;;;;;;;;;;5055783;28;7173;-66
2022/11/15 17:43:45;;;;;;;;;;;;;;;;;;5055730;28;7135;-66
2022/11/15 17:46:13;;;;;;;;;;;;;;;;;;5056178;28;7181;-65